Halltown, MO (65664)

1:42 PM CST on January 25, 2015 (GMT -0600)
South of Halltown, MO. Near Camp Wakonda. | Change Station
CLOSE
Current Station
Personal Weather Station
Location: Ash Grove, MO
Elevation: 1224 ft
Nearby Weather Stations

Elev 1224 ft 37.16 °N, 93.65 °W | Updated 11 minutes ago

Overcast
Overcast
37.6 °F
Feels Like 29 °F
N
13.0
Wind Variable Wind from West

Today
High -- | Low -- °F
--% Chance of Precip.
Yesterday
High -- | Low -- °F
Precip. -- in
7:22 AM 5:31 PM
Waxing Crescent, 35% visible
Pressure 29.78 in
Visibility 4.0 miles
Clouds Overcast 1200 ft
Windchill 29 °F
Dew Point 34 °F
Humidity 88%
Rainfall 0.00 in
Snow Depth Not available.
UV 1 out of 12
Pollen 2.20 out of 12
Air Quality Not available.
Flu Activity Not available.
METAR KSGF 251852Z 31019G25KT 4SM -RA BR OVC012 03/01 A2977 RMK AO2 PK WND 32029/1800 SLP083 P0000 T00330011

More Conditions Fewer Conditions

Pressure 29.78 in
Visibility 4.0 miles
Clouds Overcast 1200 ft
Windchill 29 °F
Dew Point 34 °F
Humidity 88%
Rainfall 0.00 in
Snow Depth Not available.
UV 1 out of 12
Pollen 2.20 out of 12
Air Quality Not available.
Flu Activity Not available.
METAR KSGF 251852Z 31019G25KT 4SM -RA BR OVC012 03/01 A2977 RMK AO2 PK WND 32029/1800 SLP083 P0000 T00330011

More Conditions Fewer Conditions

10-Day Weather Forecast

Almanac

Astronomy

Jan. 25, 2015 Rise Set
Actual Time
Civil Twilight
Nautical Twilight
Astronomical Twilight
Moon
Length of Visible Light
Length of Day
Tomorrow will be .
, % of the Moon is Illuminated

Today's Extremes

State Highs State Lows

Community

WunderPhotos

Upload Photos

1,790,030 photos uploaded!

WunderBlogs® & News

Nearby

Air Quality

  Air Quality AQ Index Pollutant
Not available.

Snow Depth

Station Depth Elevation

Earthquake Activity

City Distance Mag. Time & Date
Minimum magnitude displayed is 2.5.

Coastal Water Temperatures

Place Temperature

Nearby Weather Stations